sensor_id;sensor_type;location;lat;lon;timestamp;P1;durP1;ratioP1;P2;durP2;ratioP2
40244;SDS011;25963;42.694;23.600;2024-01-06T00:00:12;9.40;;;4.90;;
40244;SDS011;25963;42.694;23.600;2024-01-06T00:02:38;10.07;;;4.63;;
40244;SDS011;25963;42.694;23.600;2024-01-06T00:05:04;8.63;;;5.25;;
40244;SDS011;25963;42.694;23.600;2024-01-06T00:07:30;73.03;;;36.78;;
40244;SDS011;25963;42.694;23.600;2024-01-06T00:09:55;86.32;;;42.85;;
40244;SDS011;25963;42.694;23.600;2024-01-06T00:12:21;38.95;;;17.60;;
40244;SDS011;25963;42.694;23.600;2024-01-06T00:14:46;33.15;;;17.23;;
40244;SDS011;25963;42.694;23.600;2024-01-06T00:17:12;26.05;;;14.38;;
40244;SDS011;25963;42.694;23.600;2024-01-06T00:19:37;55.53;;;27.38;;
40244;SDS011;25963;42.694;23.600;2024-01-06T00:22:03;97.55;;;45.33;;
40244;SDS011;25963;42.694;23.600;2024-01-06T00:24:28;57.55;;;29.35;;
40244;SDS011;25963;42.694;23.600;2024-01-06T00:26:54;26.65;;;14.93;;
40244;SDS011;25963;42.694;23.600;2024-01-06T00:29:19;29.67;;;15.27;;
40244;SDS011;25963;42.694;23.600;2024-01-06T00:31:44;47.30;;;27.02;;
40244;SDS011;25963;42.694;23.600;2024-01-06T00:34:10;54.47;;;30.77;;
40244;SDS011;25963;42.694;23.600;2024-01-06T00:36:35;64.15;;;39.35;;
40244;SDS011;25963;42.694;23.600;2024-01-06T00:39:01;29.75;;;16.65;;
40244;SDS011;25963;42.694;23.600;2024-01-06T00:41:26;37.35;;;22.42;;
40244;SDS011;25963;42.694;23.600;2024-01-06T00:43:51;31.38;;;16.83;;
40244;SDS011;25963;42.694;23.600;2024-01-06T00:46:17;27.50;;;15.55;;
40244;SDS011;25963;42.694;23.600;2024-01-06T00:48:42;32.60;;;17.50;;
40244;SDS011;25963;42.694;23.600;2024-01-06T00:51:08;29.67;;;17.00;;
40244;SDS011;25963;42.694;23.600;2024-01-06T00:53:33;25.55;;;14.57;;
40244;SDS011;25963;42.694;23.600;2024-01-06T00:55:59;31.58;;;19.15;;
40244;SDS011;25963;42.694;23.600;2024-01-06T00:58:24;35.42;;;18.33;;
40244;SDS011;25963;42.694;23.600;2024-01-06T01:00:50;50.15;;;25.45;;
40244;SDS011;25963;42.694;23.600;2024-01-06T01:03:15;45.55;;;24.98;;
40244;SDS011;25963;42.694;23.600;2024-01-06T01:05:40;40.90;;;24.60;;
40244;SDS011;25963;42.694;23.600;2024-01-06T01:08:06;43.58;;;24.92;;
40244;SDS011;25963;42.694;23.600;2024-01-06T01:10:31;41.65;;;23.88;;
40244;SDS011;25963;42.694;23.600;2024-01-06T01:12:57;40.40;;;22.50;;
40244;SDS011;25963;42.694;23.600;2024-01-06T01:15:22;39.70;;;20.42;;
40244;SDS011;25963;42.694;23.600;2024-01-06T01:17:48;39.70;;;22.02;;
40244;SDS011;25963;42.694;23.600;2024-01-06T01:20:13;33.22;;;18.50;;
40244;SDS011;25963;42.694;23.600;2024-01-06T01:22:38;36.90;;;19.85;;
40244;SDS011;25963;42.694;23.600;2024-01-06T01:25:04;31.02;;;20.13;;
40244;SDS011;25963;42.694;23.600;2024-01-06T01:27:32;37.80;;;21.52;;
40244;SDS011;25963;42.694;23.600;2024-01-06T01:29:58;31.88;;;19.00;;
40244;SDS011;25963;42.694;23.600;2024-01-06T01:32:24;38.17;;;22.30;;
40244;SDS011;25963;42.694;23.600;2024-01-06T01:34:49;34.45;;;18.20;;
40244;SDS011;25963;42.694;23.600;2024-01-06T01:37:15;33.60;;;19.90;;
40244;SDS011;25963;42.694;23.600;2024-01-06T01:39:41;38.85;;;22.45;;
40244;SDS011;25963;42.694;23.600;2024-01-06T01:42:06;40.50;;;22.50;;
40244;SDS011;25963;42.694;23.600;2024-01-06T01:44:32;41.53;;;22.23;;
40244;SDS011;25963;42.694;23.600;2024-01-06T01:46:57;34.40;;;19.48;;
40244;SDS011;25963;42.694;23.600;2024-01-06T01:49:23;25.70;;;13.27;;
40244;SDS011;25963;42.694;23.600;2024-01-06T01:51:50;15.05;;;8.75;;
40244;SDS011;25963;42.694;23.600;2024-01-06T01:54:16;16.33;;;7.47;;
40244;SDS011;25963;42.694;23.600;2024-01-06T01:56:42;14.40;;;9.02;;
40244;SDS011;25963;42.694;23.600;2024-01-06T01:59:11;17.00;;;7.43;;
40244;SDS011;25963;42.694;23.600;2024-01-06T02:01:38;18.63;;;6.55;;
40244;SDS011;25963;42.694;23.600;2024-01-06T02:04:07;9.75;;;5.38;;
40244;SDS011;25963;42.694;23.600;2024-01-06T02:06:33;12.07;;;5.65;;
40244;SDS011;25963;42.694;23.600;2024-01-06T02:08:59;10.02;;;5.80;;
40244;SDS011;25963;42.694;23.600;2024-01-06T02:11:24;8.93;;;5.65;;
40244;SDS011;25963;42.694;23.600;2024-01-06T02:13:50;8.45;;;4.65;;
40244;SDS011;25963;42.694;23.600;2024-01-06T02:16:15;7.75;;;3.72;;
40244;SDS011;25963;42.694;23.600;2024-01-06T02:18:41;7.25;;;2.75;;
40244;SDS011;25963;42.694;23.600;2024-01-06T02:21:06;4.88;;;3.13;;
40244;SDS011;25963;42.694;23.600;2024-01-06T02:23:33;6.20;;;3.92;;
40244;SDS011;25963;42.694;23.600;2024-01-06T02:26:00;6.38;;;3.88;;
40244;SDS011;25963;42.694;23.600;2024-01-06T02:28:27;5.93;;;2.60;;
40244;SDS011;25963;42.694;23.600;2024-01-06T02:30:52;10.45;;;4.57;;
40244;SDS011;25963;42.694;23.600;2024-01-06T02:33:17;17.50;;;5.85;;
40244;SDS011;25963;42.694;23.600;2024-01-06T02:35:45;7.53;;;4.40;;
40244;SDS011;25963;42.694;23.600;2024-01-06T02:38:10;19.10;;;9.07;;
40244;SDS011;25963;42.694;23.600;2024-01-06T02:40:36;18.25;;;10.55;;
40244;SDS011;25963;42.694;23.600;2024-01-06T02:43:01;21.95;;;9.70;;
40244;SDS011;25963;42.694;23.600;2024-01-06T02:45:27;12.10;;;7.32;;
40244;SDS011;25963;42.694;23.600;2024-01-06T02:47:52;13.85;;;6.25;;
40244;SDS011;25963;42.694;23.600;2024-01-06T02:50:18;10.30;;;4.95;;
40244;SDS011;25963;42.694;23.600;2024-01-06T02:52:44;27.38;;;14.57;;
40244;SDS011;25963;42.694;23.600;2024-01-06T02:55:10;13.02;;;7.00;;
40244;SDS011;25963;42.694;23.600;2024-01-06T02:57:36;11.32;;;7.18;;
40244;SDS011;25963;42.694;23.600;2024-01-06T03:00:02;17.08;;;9.70;;
40244;SDS011;25963;42.694;23.600;2024-01-06T03:02:28;16.83;;;10.23;;
40244;SDS011;25963;42.694;23.600;2024-01-06T03:04:54;22.40;;;8.48;;
40244;SDS011;25963;42.694;23.600;2024-01-06T03:07:20;16.55;;;8.43;;
40244;SDS011;25963;42.694;23.600;2024-01-06T03:09:45;18.90;;;10.20;;
40244;SDS011;25963;42.694;23.600;2024-01-06T03:12:11;16.77;;;8.98;;
40244;SDS011;25963;42.694;23.600;2024-01-06T03:14:36;22.30;;;13.00;;
40244;SDS011;25963;42.694;23.600;2024-01-06T03:17:02;24.65;;;13.93;;
40244;SDS011;25963;42.694;23.600;2024-01-06T03:19:28;17.27;;;10.93;;
40244;SDS011;25963;42.694;23.600;2024-01-06T03:21:55;10.88;;;6.00;;
40244;SDS011;25963;42.694;23.600;2024-01-06T03:24:21;9.60;;;5.07;;
40244;SDS011;25963;42.694;23.600;2024-01-06T03:26:48;13.57;;;7.55;;
40244;SDS011;25963;42.694;23.600;2024-01-06T03:29:13;13.77;;;6.68;;
40244;SDS011;25963;42.694;23.600;2024-01-06T03:31:42;8.30;;;5.28;;
40244;SDS011;25963;42.694;23.600;2024-01-06T03:34:10;6.95;;;3.60;;
40244;SDS011;25963;42.694;23.600;2024-01-06T03:36:37;9.10;;;4.53;;
40244;SDS011;25963;42.694;23.600;2024-01-06T03:39:03;6.75;;;3.70;;
40244;SDS011;25963;42.694;23.600;2024-01-06T03:41:28;6.43;;;4.68;;
40244;SDS011;25963;42.694;23.600;2024-01-06T03:43:53;6.60;;;3.28;;
40244;SDS011;25963;42.694;23.600;2024-01-06T03:46:19;5.60;;;2.88;;
40244;SDS011;25963;42.694;23.600;2024-01-06T03:48:44;4.43;;;2.80;;
40244;SDS011;25963;42.694;23.600;2024-01-06T03:51:11;7.40;;;2.83;;
40244;SDS011;25963;42.694;23.600;2024-01-06T03:53:37;5.40;;;2.72;;
40244;SDS011;25963;42.694;23.600;2024-01-06T03:56:03;4.55;;;3.22;;
40244;SDS011;25963;42.694;23.600;2024-01-06T03:58:29;6.53;;;3.10;;
40244;SDS011;25963;42.694;23.600;2024-01-06T04:00:54;4.72;;;3.20;;
40244;SDS011;25963;42.694;23.600;2024-01-06T04:03:20;7.97;;;4.15;;
40244;SDS011;25963;42.694;23.600;2024-01-06T04:05:46;5.25;;;3.10;;
40244;SDS011;25963;42.694;23.600;2024-01-06T04:08:11;5.57;;;3.40;;
40244;SDS011;25963;42.694;23.600;2024-01-06T04:10:36;4.20;;;3.35;;
40244;SDS011;25963;42.694;23.600;2024-01-06T04:13:02;6.05;;;3.38;;
40244;SDS011;25963;42.694;23.600;2024-01-06T04:15:27;6.45;;;3.30;;
40244;SDS011;25963;42.694;23.600;2024-01-06T04:17:54;6.88;;;4.45;;
40244;SDS011;25963;42.694;23.600;2024-01-06T04:20:19;14.07;;;3.90;;
40244;SDS011;25963;42.694;23.600;2024-01-06T04:22:44;6.97;;;2.97;;
40244;SDS011;25963;42.694;23.600;2024-01-06T04:25:13;4.93;;;3.05;;
40244;SDS011;25963;42.694;23.600;2024-01-06T04:27:38;3.65;;;2.40;;
40244;SDS011;25963;42.694;23.600;2024-01-06T04:30:03;8.10;;;3.22;;
40244;SDS011;25963;42.694;23.600;2024-01-06T04:32:29;3.97;;;2.45;;
40244;SDS011;25963;42.694;23.600;2024-01-06T04:34:55;11.10;;;3.25;;
40244;SDS011;25963;42.694;23.600;2024-01-06T04:37:22;4.25;;;3.10;;
40244;SDS011;25963;42.694;23.600;2024-01-06T04:39:47;5.70;;;3.15;;
40244;SDS011;25963;42.694;23.600;2024-01-06T04:42:12;6.30;;;3.55;;
40244;SDS011;25963;42.694;23.600;2024-01-06T04:44:38;6.25;;;2.92;;
40244;SDS011;25963;42.694;23.600;2024-01-06T04:47:03;5.80;;;2.63;;
40244;SDS011;25963;42.694;23.600;2024-01-06T04:49:29;4.78;;;3.10;;
40244;SDS011;25963;42.694;23.600;2024-01-06T04:51:54;5.43;;;2.47;;
40244;SDS011;25963;42.694;23.600;2024-01-06T04:54:20;5.15;;;3.10;;
40244;SDS011;25963;42.694;23.600;2024-01-06T04:56:46;4.82;;;3.10;;
40244;SDS011;25963;42.694;23.600;2024-01-06T04:59:11;6.63;;;3.35;;
40244;SDS011;25963;42.694;23.600;2024-01-06T05:01:37;10.57;;;6.68;;
40244;SDS011;25963;42.694;23.600;2024-01-06T05:04:02;10.18;;;6.03;;
40244;SDS011;25963;42.694;23.600;2024-01-06T05:06:28;11.52;;;5.07;;
40244;SDS011;25963;42.694;23.600;2024-01-06T05:08:53;16.42;;;8.95;;
40244;SDS011;25963;42.694;23.600;2024-01-06T05:11:18;21.58;;;10.80;;
40244;SDS011;25963;42.694;23.600;2024-01-06T05:13:44;14.57;;;7.97;;
40244;SDS011;25963;42.694;23.600;2024-01-06T05:16:09;14.43;;;6.05;;
40244;SDS011;25963;42.694;23.600;2024-01-06T05:18:35;11.98;;;7.32;;
40244;SDS011;25963;42.694;23.600;2024-01-06T05:21:00;12.63;;;7.85;;
40244;SDS011;25963;42.694;23.600;2024-01-06T05:23:27;12.82;;;6.47;;
40244;SDS011;25963;42.694;23.600;2024-01-06T05:25:52;14.05;;;8.93;;
40244;SDS011;25963;42.694;23.600;2024-01-06T05:28:17;21.65;;;12.38;;
40244;SDS011;25963;42.694;23.600;2024-01-06T05:30:43;15.55;;;9.00;;
40244;SDS011;25963;42.694;23.600;2024-01-06T05:33:11;18.98;;;10.15;;
40244;SDS011;25963;42.694;23.600;2024-01-06T05:35:38;19.73;;;10.85;;
40244;SDS011;25963;42.694;23.600;2024-01-06T05:38:04;25.42;;;13.30;;
40244;SDS011;25963;42.694;23.600;2024-01-06T05:40:29;20.23;;;13.23;;
40244;SDS011;25963;42.694;23.600;2024-01-06T05:42:55;23.75;;;13.02;;
40244;SDS011;25963;42.694;23.600;2024-01-06T05:45:21;31.08;;;18.50;;
40244;SDS011;25963;42.694;23.600;2024-01-06T05:47:47;40.47;;;20.55;;
40244;SDS011;25963;42.694;23.600;2024-01-06T05:50:14;32.55;;;19.20;;
40244;SDS011;25963;42.694;23.600;2024-01-06T05:52:40;47.85;;;26.13;;
40244;SDS011;25963;42.694;23.600;2024-01-06T05:55:06;47.17;;;26.13;;
40244;SDS011;25963;42.694;23.600;2024-01-06T05:57:32;49.53;;;26.02;;
40244;SDS011;25963;42.694;23.600;2024-01-06T05:59:57;44.38;;;24.40;;
40244;SDS011;25963;42.694;23.600;2024-01-06T06:02:24;37.72;;;20.40;;
40244;SDS011;25963;42.694;23.600;2024-01-06T06:04:49;37.08;;;20.65;;
40244;SDS011;25963;42.694;23.600;2024-01-06T06:07:15;47.00;;;28.70;;
40244;SDS011;25963;42.694;23.600;2024-01-06T06:09:40;21.08;;;12.07;;
40244;SDS011;25963;42.694;23.600;2024-01-06T06:12:06;29.33;;;16.38;;
40244;SDS011;25963;42.694;23.600;2024-01-06T06:14:31;11.13;;;5.95;;
40244;SDS011;25963;42.694;23.600;2024-01-06T06:16:57;18.13;;;10.85;;
40244;SDS011;25963;42.694;23.600;2024-01-06T06:19:22;30.00;;;16.40;;
40244;SDS011;25963;42.694;23.600;2024-01-06T06:21:47;61.92;;;36.85;;
40244;SDS011;25963;42.694;23.600;2024-01-06T06:24:13;77.43;;;45.03;;
40244;SDS011;25963;42.694;23.600;2024-01-06T06:26:38;130.43;;;72.43;;
40244;SDS011;25963;42.694;23.600;2024-01-06T06:29:04;57.50;;;33.83;;
40244;SDS011;25963;42.694;23.600;2024-01-06T06:31:29;44.20;;;24.83;;
40244;SDS011;25963;42.694;23.600;2024-01-06T06:33:55;26.58;;;13.02;;
40244;SDS011;25963;42.694;23.600;2024-01-06T06:36:20;84.72;;;37.20;;
40244;SDS011;25963;42.694;23.600;2024-01-06T06:38:45;105.05;;;44.80;;
40244;SDS011;25963;42.694;23.600;2024-01-06T06:41:11;147.82;;;68.45;;
40244;SDS011;25963;42.694;23.600;2024-01-06T06:43:36;161.25;;;69.13;;
40244;SDS011;25963;42.694;23.600;2024-01-06T06:46:02;22.13;;;11.02;;
40244;SDS011;25963;42.694;23.600;2024-01-06T06:48:28;62.60;;;27.55;;
40244;SDS011;25963;42.694;23.600;2024-01-06T06:50:53;24.10;;;9.43;;
40244;SDS011;25963;42.694;23.600;2024-01-06T06:53:19;359.75;;;114.70;;
40244;SDS011;25963;42.694;23.600;2024-01-06T06:55:44;780.35;;;279.05;;
40244;SDS011;25963;42.694;23.600;2024-01-06T06:58:09;556.72;;;194.93;;
40244;SDS011;25963;42.694;23.600;2024-01-06T07:00:35;430.98;;;125.90;;
40244;SDS011;25963;42.694;23.600;2024-01-06T07:03:00;338.38;;;93.40;;
40244;SDS011;25963;42.694;23.600;2024-01-06T07:05:26;683.25;;;199.98;;
40244;SDS011;25963;42.694;23.600;2024-01-06T07:07:51;372.75;;;115.97;;
40244;SDS011;25963;42.694;23.600;2024-01-06T07:10:17;176.98;;;52.72;;
40244;SDS011;25963;42.694;23.600;2024-01-06T07:12:42;1999.90;;;838.05;;
40244;SDS011;25963;42.694;23.600;2024-01-06T07:15:08;940.38;;;334.58;;
40244;SDS011;25963;42.694;23.600;2024-01-06T07:17:37;1478.65;;;489.13;;
40244;SDS011;25963;42.694;23.600;2024-01-06T07:20:03;507.10;;;152.60;;
40244;SDS011;25963;42.694;23.600;2024-01-06T07:22:32;1999.90;;;696.85;;
40244;SDS011;25963;42.694;23.600;2024-01-06T07:24:59;609.70;;;199.95;;
40244;SDS011;25963;42.694;23.600;2024-01-06T07:27:26;295.40;;;88.03;;
40244;SDS011;25963;42.694;23.600;2024-01-06T07:29:51;268.02;;;87.30;;
40244;SDS011;25963;42.694;23.600;2024-01-06T07:32:17;157.10;;;72.85;;
40244;SDS011;25963;42.694;23.600;2024-01-06T07:34:42;99.15;;;53.03;;
40244;SDS011;25963;42.694;23.600;2024-01-06T07:37:08;68.60;;;33.53;;
40244;SDS011;25963;42.694;23.600;2024-01-06T07:39:34;29.40;;;13.27;;
40244;SDS011;25963;42.694;23.600;2024-01-06T07:41:59;88.55;;;27.95;;
40244;SDS011;25963;42.694;23.600;2024-01-06T07:44:25;410.70;;;124.10;;
40244;SDS011;25963;42.694;23.600;2024-01-06T07:46:51;200.13;;;58.58;;
40244;SDS011;25963;42.694;23.600;2024-01-06T07:49:16;107.88;;;37.25;;
40244;SDS011;25963;42.694;23.600;2024-01-06T07:51:42;229.00;;;73.93;;
40244;SDS011;25963;42.694;23.600;2024-01-06T07:54:07;223.15;;;99.95;;
40244;SDS011;25963;42.694;23.600;2024-01-06T07:56:34;188.45;;;86.07;;
40244;SDS011;25963;42.694;23.600;2024-01-06T07:59:03;196.60;;;79.53;;
40244;SDS011;25963;42.694;23.600;2024-01-06T08:01:29;182.30;;;68.38;;
40244;SDS011;25963;42.694;23.600;2024-01-06T08:03:54;403.90;;;133.07;;
40244;SDS011;25963;42.694;23.600;2024-01-06T08:06:20;314.95;;;99.97;;
40244;SDS011;25963;42.694;23.600;2024-01-06T08:08:45;300.60;;;95.45;;
40244;SDS011;25963;42.694;23.600;2024-01-06T08:11:11;331.98;;;104.32;;
40244;SDS011;25963;42.694;23.600;2024-01-06T08:13:36;482.13;;;154.30;;
40244;SDS011;25963;42.694;23.600;2024-01-06T08:16:02;122.57;;;51.13;;
40244;SDS011;25963;42.694;23.600;2024-01-06T08:18:28;57.38;;;29.02;;
40244;SDS011;25963;42.694;23.600;2024-01-06T08:20:53;37.65;;;20.92;;
40244;SDS011;25963;42.694;23.600;2024-01-06T08:23:19;41.85;;;25.23;;
40244;SDS011;25963;42.694;23.600;2024-01-06T08:25:45;31.67;;;18.42;;
40244;SDS011;25963;42.694;23.600;2024-01-06T08:28:11;20.15;;;13.75;;
40244;SDS011;25963;42.694;23.600;2024-01-06T08:30:37;34.72;;;21.30;;
40244;SDS011;25963;42.694;23.600;2024-01-06T08:33:02;52.63;;;32.75;;
40244;SDS011;25963;42.694;23.600;2024-01-06T08:35:28;421.90;;;144.55;;
40244;SDS011;25963;42.694;23.600;2024-01-06T08:37:53;649.40;;;229.35;;
40244;SDS011;25963;42.694;23.600;2024-01-06T08:40:19;318.17;;;102.07;;
40244;SDS011;25963;42.694;23.600;2024-01-06T08:42:44;484.13;;;155.98;;
40244;SDS011;25963;42.694;23.600;2024-01-06T08:45:09;301.50;;;87.00;;
40244;SDS011;25963;42.694;23.600;2024-01-06T08:47:35;74.10;;;36.15;;
40244;SDS011;25963;42.694;23.600;2024-01-06T08:50:00;42.47;;;31.48;;
40244;SDS011;25963;42.694;23.600;2024-01-06T08:52:26;75.28;;;54.13;;
40244;SDS011;25963;42.694;23.600;2024-01-06T08:54:51;39.28;;;28.23;;
40244;SDS011;25963;42.694;23.600;2024-01-06T08:57:17;27.65;;;19.10;;
40244;SDS011;25963;42.694;23.600;2024-01-06T08:59:43;33.20;;;22.30;;
40244;SDS011;25963;42.694;23.600;2024-01-06T09:02:10;27.02;;;16.30;;
40244;SDS011;25963;42.694;23.600;2024-01-06T09:04:35;29.67;;;20.83;;
40244;SDS011;25963;42.694;23.600;2024-01-06T09:07:01;26.55;;;16.48;;
40244;SDS011;25963;42.694;23.600;2024-01-06T09:09:26;25.85;;;17.58;;
40244;SDS011;25963;42.694;23.600;2024-01-06T09:11:53;26.30;;;17.17;;
40244;SDS011;25963;42.694;23.600;2024-01-06T09:14:18;23.27;;;15.25;;
40244;SDS011;25963;42.694;23.600;2024-01-06T09:16:44;28.88;;;16.85;;
40244;SDS011;25963;42.694;23.600;2024-01-06T09:19:10;23.77;;;16.00;;
40244;SDS011;25963;42.694;23.600;2024-01-06T09:21:35;23.98;;;16.58;;
40244;SDS011;25963;42.694;23.600;2024-01-06T09:24:01;26.83;;;16.73;;
40244;SDS011;25963;42.694;23.600;2024-01-06T09:26:31;25.77;;;17.92;;
40244;SDS011;25963;42.694;23.600;2024-01-06T09:28:57;26.23;;;17.00;;
40244;SDS011;25963;42.694;23.600;2024-01-06T09:31:22;79.85;;;35.20;;
40244;SDS011;25963;42.694;23.600;2024-01-06T09:33:48;232.40;;;87.38;;
40244;SDS011;25963;42.694;23.600;2024-01-06T09:36:15;49.90;;;22.65;;
40244;SDS011;25963;42.694;23.600;2024-01-06T09:38:40;116.13;;;46.65;;
40244;SDS011;25963;42.694;23.600;2024-01-06T09:41:06;187.05;;;73.10;;
40244;SDS011;25963;42.694;23.600;2024-01-06T09:43:31;76.70;;;31.70;;
40244;SDS011;25963;42.694;23.600;2024-01-06T09:46:00;26.38;;;12.95;;
40244;SDS011;25963;42.694;23.600;2024-01-06T09:48:31;16.17;;;9.23;;
40244;SDS011;25963;42.694;23.600;2024-01-06T09:51:04;24.63;;;13.70;;
40244;SDS011;25963;42.694;23.600;2024-01-06T09:53:35;25.37;;;13.93;;
40244;SDS011;25963;42.694;23.600;2024-01-06T09:56:05;36.00;;;21.35;;
40244;SDS011;25963;42.694;23.600;2024-01-06T09:58:31;44.47;;;26.75;;
40244;SDS011;25963;42.694;23.600;2024-01-06T10:01:00;92.07;;;45.15;;
40244;SDS011;25963;42.694;23.600;2024-01-06T10:03:26;232.68;;;100.15;;
40244;SDS011;25963;42.694;23.600;2024-01-06T10:05:52;74.30;;;42.47;;
40244;SDS011;25963;42.694;23.600;2024-01-06T10:08:18;51.15;;;31.35;;
40244;SDS011;25963;42.694;23.600;2024-01-06T10:10:44;69.85;;;31.02;;
40244;SDS011;25963;42.694;23.600;2024-01-06T10:13:10;28.83;;;20.95;;
40244;SDS011;25963;42.694;23.600;2024-01-06T10:15:35;143.77;;;68.63;;
40244;SDS011;25963;42.694;23.600;2024-01-06T10:18:01;67.07;;;37.85;;
40244;SDS011;25963;42.694;23.600;2024-01-06T10:20:28;34.90;;;23.23;;
40244;SDS011;25963;42.694;23.600;2024-01-06T10:22:54;69.30;;;39.67;;
40244;SDS011;25963;42.694;23.600;2024-01-06T10:25:21;140.85;;;67.45;;
40244;SDS011;25963;42.694;23.600;2024-01-06T10:27:48;250.98;;;94.65;;
40244;SDS011;25963;42.694;23.600;2024-01-06T10:30:14;71.22;;;39.60;;
40244;SDS011;25963;42.694;23.600;2024-01-06T10:32:43;103.85;;;51.28;;
40244;SDS011;25963;42.694;23.600;2024-01-06T10:35:09;36.10;;;21.45;;
40244;SDS011;25963;42.694;23.600;2024-01-06T10:37:34;46.85;;;26.27;;
40244;SDS011;25963;42.694;23.600;2024-01-06T10:40:09;54.03;;;30.00;;
40244;SDS011;25963;42.694;23.600;2024-01-06T10:42:35;40.67;;;24.20;;
40244;SDS011;25963;42.694;23.600;2024-01-06T10:45:01;12.00;;;7.60;;
40244;SDS011;25963;42.694;23.600;2024-01-06T10:47:27;6.68;;;4.43;;
40244;SDS011;25963;42.694;23.600;2024-01-06T10:49:57;11.15;;;5.97;;
40244;SDS011;25963;42.694;23.600;2024-01-06T10:52:24;7.00;;;4.90;;
40244;SDS011;25963;42.694;23.600;2024-01-06T10:54:52;8.60;;;4.28;;
40244;SDS011;25963;42.694;23.600;2024-01-06T10:57:19;8.73;;;5.07;;
40244;SDS011;25963;42.694;23.600;2024-01-06T10:59:45;7.55;;;4.03;;
40244;SDS011;25963;42.694;23.600;2024-01-06T11:02:14;9.35;;;4.50;;
40244;SDS011;25963;42.694;23.600;2024-01-06T11:04:42;8.52;;;4.80;;
40244;SDS011;25963;42.694;23.600;2024-01-06T11:07:09;7.50;;;5.30;;
40244;SDS011;25963;42.694;23.600;2024-01-06T11:09:35;9.32;;;5.15;;
40244;SDS011;25963;42.694;23.600;2024-01-06T11:12:04;5.05;;;2.90;;
40244;SDS011;25963;42.694;23.600;2024-01-06T11:14:36;21.45;;;8.25;;
40244;SDS011;25963;42.694;23.600;2024-01-06T11:17:02;7.72;;;5.47;;
40244;SDS011;25963;42.694;23.600;2024-01-06T11:24:53;9.23;;;5.78;;
40244;SDS011;25963;42.694;23.600;2024-01-06T11:29:53;4.63;;;3.25;;
40244;SDS011;25963;42.694;23.600;2024-01-06T11:32:43;5.43;;;3.08;;
40244;SDS011;25963;42.694;23.600;2024-01-06T11:35:12;5.97;;;3.60;;
40244;SDS011;25963;42.694;23.600;2024-01-06T11:40:08;7.22;;;3.65;;
40244;SDS011;25963;42.694;23.600;2024-01-06T11:42:49;6.40;;;4.53;;
40244;SDS011;25963;42.694;23.600;2024-01-06T11:45:27;8.63;;;5.70;;
40244;SDS011;25963;42.694;23.600;2024-01-06T11:47:56;14.48;;;8.00;;
40244;SDS011;25963;42.694;23.600;2024-01-06T11:50:27;14.90;;;8.10;;
40244;SDS011;25963;42.694;23.600;2024-01-06T11:52:53;7.65;;;3.65;;
40244;SDS011;25963;42.694;23.600;2024-01-06T11:55:20;6.93;;;4.28;;
40244;SDS011;25963;42.694;23.600;2024-01-06T11:57:46;7.57;;;4.97;;
40244;SDS011;25963;42.694;23.600;2024-01-06T12:00:13;6.80;;;3.78;;
40244;SDS011;25963;42.694;23.600;2024-01-06T12:02:41;5.45;;;3.17;;
40244;SDS011;25963;42.694;23.600;2024-01-06T12:05:12;5.00;;;3.65;;
40244;SDS011;25963;42.694;23.600;2024-01-06T12:07:40;5.95;;;4.43;;
40244;SDS011;25963;42.694;23.600;2024-01-06T12:10:06;7.20;;;3.08;;
40244;SDS011;25963;42.694;23.600;2024-01-06T12:12:32;6.38;;;3.15;;
40244;SDS011;25963;42.694;23.600;2024-01-06T12:14:58;6.22;;;3.90;;
40244;SDS011;25963;42.694;23.600;2024-01-06T12:17:23;8.02;;;3.72;;
40244;SDS011;25963;42.694;23.600;2024-01-06T12:19:54;7.93;;;4.50;;
40244;SDS011;25963;42.694;23.600;2024-01-06T12:22:19;4.35;;;2.35;;
40244;SDS011;25963;42.694;23.600;2024-01-06T12:24:48;3.58;;;2.60;;
40244;SDS011;25963;42.694;23.600;2024-01-06T12:27:14;8.80;;;5.13;;
40244;SDS011;25963;42.694;23.600;2024-01-06T12:29:42;5.20;;;3.05;;
40244;SDS011;25963;42.694;23.600;2024-01-06T12:32:08;9.40;;;3.95;;
40244;SDS011;25963;42.694;23.600;2024-01-06T12:34:34;8.50;;;3.00;;
40244;SDS011;25963;42.694;23.600;2024-01-06T12:37:00;6.18;;;3.60;;
40244;SDS011;25963;42.694;23.600;2024-01-06T12:39:29;5.95;;;4.38;;
40244;SDS011;25963;42.694;23.600;2024-01-06T12:41:55;5.90;;;3.53;;
40244;SDS011;25963;42.694;23.600;2024-01-06T12:44:21;6.47;;;3.78;;
40244;SDS011;25963;42.694;23.600;2024-01-06T12:46:48;8.48;;;5.43;;
40244;SDS011;25963;42.694;23.600;2024-01-06T12:49:14;8.00;;;5.13;;
40244;SDS011;25963;42.694;23.600;2024-01-06T12:51:39;17.38;;;9.73;;
40244;SDS011;25963;42.694;23.600;2024-01-06T12:54:05;13.90;;;9.23;;
40244;SDS011;25963;42.694;23.600;2024-01-06T12:56:30;38.92;;;23.23;;
40244;SDS011;25963;42.694;23.600;2024-01-06T12:58:56;11.38;;;7.47;;
40244;SDS011;25963;42.694;23.600;2024-01-06T13:01:22;10.10;;;4.85;;
40244;SDS011;25963;42.694;23.600;2024-01-06T13:03:47;35.40;;;18.88;;
40244;SDS011;25963;42.694;23.600;2024-01-06T13:06:13;8.65;;;5.53;;
40244;SDS011;25963;42.694;23.600;2024-01-06T13:08:40;9.93;;;5.28;;
40244;SDS011;25963;42.694;23.600;2024-01-06T13:11:06;8.38;;;4.80;;
40244;SDS011;25963;42.694;23.600;2024-01-06T13:13:32;11.75;;;7.43;;
40244;SDS011;25963;42.694;23.600;2024-01-06T13:15:57;9.38;;;5.03;;
40244;SDS011;25963;42.694;23.600;2024-01-06T13:18:23;13.60;;;6.45;;
40244;SDS011;25963;42.694;23.600;2024-01-06T13:20:48;7.18;;;4.75;;
40244;SDS011;25963;42.694;23.600;2024-01-06T13:23:14;6.43;;;5.05;;
40244;SDS011;25963;42.694;23.600;2024-01-06T13:25:40;7.50;;;3.88;;
40244;SDS011;25963;42.694;23.600;2024-01-06T13:28:06;10.50;;;6.90;;
40244;SDS011;25963;42.694;23.600;2024-01-06T13:30:32;10.43;;;5.22;;
40244;SDS011;25963;42.694;23.600;2024-01-06T13:32:58;8.25;;;4.30;;
40244;SDS011;25963;42.694;23.600;2024-01-06T13:35:24;8.60;;;4.85;;
40244;SDS011;25963;42.694;23.600;2024-01-06T13:37:53;9.02;;;5.15;;
40244;SDS011;25963;42.694;23.600;2024-01-06T13:40:20;4.88;;;3.75;;
40244;SDS011;25963;42.694;23.600;2024-01-06T13:42:47;5.50;;;3.08;;
40244;SDS011;25963;42.694;23.600;2024-01-06T13:45:13;6.35;;;2.95;;
40244;SDS011;25963;42.694;23.600;2024-01-06T13:47:39;6.22;;;2.42;;
40244;SDS011;25963;42.694;23.600;2024-01-06T13:50:09;3.70;;;2.08;;
40244;SDS011;25963;42.694;23.600;2024-01-06T13:52:39;4.28;;;2.20;;
40244;SDS011;25963;42.694;23.600;2024-01-06T13:55:05;5.35;;;1.73;;
40244;SDS011;25963;42.694;23.600;2024-01-06T13:57:31;4.55;;;2.20;;
40244;SDS011;25963;42.694;23.600;2024-01-06T13:59:57;2.60;;;1.65;;
40244;SDS011;25963;42.694;23.600;2024-01-06T14:02:22;6.57;;;2.10;;
40244;SDS011;25963;42.694;23.600;2024-01-06T14:04:48;4.22;;;1.60;;
40244;SDS011;25963;42.694;23.600;2024-01-06T14:07:14;3.55;;;2.22;;
40244;SDS011;25963;42.694;23.600;2024-01-06T14:09:40;3.95;;;1.88;;
40244;SDS011;25963;42.694;23.600;2024-01-06T14:12:08;4.85;;;2.83;;
40244;SDS011;25963;42.694;23.600;2024-01-06T14:14:34;5.90;;;2.97;;
40244;SDS011;25963;42.694;23.600;2024-01-06T14:16:59;8.05;;;4.22;;
40244;SDS011;25963;42.694;23.600;2024-01-06T14:19:24;9.50;;;4.35;;